<?xml version="1.0" encoding="UTF-8" standalone="no" ?>
<gpx xmlns="http://www.topografix.com/GPX/1/1" xmlns:xsi="http://www.w3.org/2001/XMLSchema-instance" xsi:schemaLocation="http://www.topografix.com/GPX/1/1 http://www.topografix.com/GPX/1/1/gpx.xsd" version="1.1" creator="VisuGPX - https://www.visugpx.com">
  <metadata>
    <name>83-Verignon</name>
    <desc><![CDATA[Vérignon - Circuit des deux Chapelles]]></desc>
  </metadata>
  <wpt lat="43.65173" lon="6.25567">
    <ele>960.17</ele>
    <name><![CDATA[WPT_0000030]]></name>
    <desc><![CDATA[]]></desc>
    <type><![CDATA[Photo]]></type>
  </wpt>
  <wpt lat="43.65114" lon="6.25755">
    <ele>971.3</ele>
    <name><![CDATA[WPT_0000031]]></name>
    <desc><![CDATA[]]></desc>
    <type><![CDATA[Photo]]></type>
  </wpt>
  <trk>
    <name><![CDATA[vergnon]]></name>
    <desc><![CDATA[<h1>OruxMaps</h1><br /><hr align="center" width="480" style="height: 2px; width: 517px"/><h2>Nom: vergnon</h2><br /><p>Temps de départ: 08/27/2014 08:16</p><p>Temps d'arrivée: 08/27/2014 11:43</p><p>Distance: 7,8 km (03:27)</p><p>Temps déplacement: 02:14</p><p>Vitesse moyenne: 2,3 km/h</p><p>Vitesse moyenne: 3,5 km/h</p><p>Vitess Max.: 7,6 km/h</p><p>Altitude minimale: 827 m</p><p>Altitude maximale: 1079 m</p><p>Vitesse d'élévation: 213,8 m/h</p><p>Vitesse de descente: -200,3 m/h</p><p>Gain Altitude: 326 m</p><p>Perte Altitude: -343 m</p><p>Temps d'élévation: 01:31</p><p>Temps de descente: 01:42</p><hr align="center" width="480" style="height: 2px; width: 517px"/>]]></desc>
    <trkseg>
      <trkpt lat="43.65669" lon="6.26646">
        <ele>845.82</ele>
        <time>2014-08-27T06:16:38Z</time>
      </trkpt>
      <trkpt lat="43.65652" lon="6.26638">
        <ele>832.21</ele>
        <time>2014-08-27T06:21:17Z</time>
      </trkpt>
      <trkpt lat="43.65642" lon="6.26616">
        <ele>832.67</ele>
        <time>2014-08-27T06:21:49Z</time>
      </trkpt>
      <trkpt lat="43.65638" lon="6.26591">
        <ele>832.87</ele>
        <time>2014-08-27T06:22:09Z</time>
      </trkpt>
      <trkpt lat="43.65637" lon="6.26566">
        <ele>832.85</ele>
        <time>2014-08-27T06:22:28Z</time>
      </trkpt>
      <trkpt lat="43.65635" lon="6.26542">
        <ele>833.61</ele>
        <time>2014-08-27T06:22:54Z</time>
      </trkpt>
      <trkpt lat="43.65635" lon="6.26516">
        <ele>836.07</ele>
        <time>2014-08-27T06:23:26Z</time>
      </trkpt>
      <trkpt lat="43.65629" lon="6.26492">
        <ele>839.5</ele>
        <time>2014-08-27T06:23:44Z</time>
      </trkpt>
      <trkpt lat="43.65621" lon="6.26469">
        <ele>840.3</ele>
        <time>2014-08-27T06:24:07Z</time>
      </trkpt>
      <trkpt lat="43.65608" lon="6.2645">
        <ele>841.71</ele>
        <time>2014-08-27T06:24:27Z</time>
      </trkpt>
      <trkpt lat="43.6559" lon="6.26443">
        <ele>845.08</ele>
        <time>2014-08-27T06:24:47Z</time>
      </trkpt>
      <trkpt lat="43.65571" lon="6.26441">
        <ele>846.21</ele>
        <time>2014-08-27T06:25:08Z</time>
      </trkpt>
      <trkpt lat="43.65554" lon="6.26431">
        <ele>846.15</ele>
        <time>2014-08-27T06:25:34Z</time>
      </trkpt>
      <trkpt lat="43.65538" lon="6.2642">
        <ele>848.21</ele>
        <time>2014-08-27T06:25:58Z</time>
      </trkpt>
      <trkpt lat="43.65522" lon="6.26407">
        <ele>851</ele>
        <time>2014-08-27T06:26:21Z</time>
      </trkpt>
      <trkpt lat="43.65507" lon="6.26391">
        <ele>854.23</ele>
        <time>2014-08-27T06:26:44Z</time>
      </trkpt>
      <trkpt lat="43.6549" lon="6.26381">
        <ele>856.07</ele>
        <time>2014-08-27T06:27:11Z</time>
      </trkpt>
      <trkpt lat="43.65485" lon="6.26357">
        <ele>859.42</ele>
        <time>2014-08-27T06:27:39Z</time>
      </trkpt>
      <trkpt lat="43.6547" lon="6.26342">
        <ele>862.13</ele>
        <time>2014-08-27T06:27:59Z</time>
      </trkpt>
      <trkpt lat="43.65455" lon="6.26327">
        <ele>865.21</ele>
        <time>2014-08-27T06:28:26Z</time>
      </trkpt>
      <trkpt lat="43.65438" lon="6.26315">
        <ele>867.6</ele>
        <time>2014-08-27T06:28:41Z</time>
      </trkpt>
      <trkpt lat="43.65429" lon="6.26293">
        <ele>867.95</ele>
        <time>2014-08-27T06:29:01Z</time>
      </trkpt>
      <trkpt lat="43.65432" lon="6.26268">
        <ele>869.95</ele>
        <time>2014-08-27T06:29:33Z</time>
      </trkpt>
      <trkpt lat="43.65426" lon="6.26244">
        <ele>872.92</ele>
        <time>2014-08-27T06:30:00Z</time>
      </trkpt>
      <trkpt lat="43.65421" lon="6.26219">
        <ele>875.21</ele>
        <time>2014-08-27T06:30:28Z</time>
      </trkpt>
      <trkpt lat="43.65419" lon="6.26194">
        <ele>876.77</ele>
        <time>2014-08-27T06:30:50Z</time>
      </trkpt>
      <trkpt lat="43.6541" lon="6.26173">
        <ele>881.01</ele>
        <time>2014-08-27T06:31:28Z</time>
      </trkpt>
      <trkpt lat="43.65396" lon="6.26157">
        <ele>886.44</ele>
        <time>2014-08-27T06:32:31Z</time>
      </trkpt>
      <trkpt lat="43.65397" lon="6.26132">
        <ele>891.32</ele>
        <time>2014-08-27T06:34:13Z</time>
      </trkpt>
      <trkpt lat="43.65405" lon="6.26109">
        <ele>893.17</ele>
        <time>2014-08-27T06:34:29Z</time>
      </trkpt>
      <trkpt lat="43.6541" lon="6.26085">
        <ele>895.29</ele>
        <time>2014-08-27T06:34:57Z</time>
      </trkpt>
      <trkpt lat="43.65414" lon="6.2606">
        <ele>896.07</ele>
        <time>2014-08-27T06:35:21Z</time>
      </trkpt>
      <trkpt lat="43.65414" lon="6.26035">
        <ele>899.75</ele>
        <time>2014-08-27T06:35:47Z</time>
      </trkpt>
      <trkpt lat="43.65405" lon="6.26014">
        <ele>902.9</ele>
        <time>2014-08-27T06:36:14Z</time>
      </trkpt>
      <trkpt lat="43.65391" lon="6.25995">
        <ele>905.26</ele>
        <time>2014-08-27T06:36:32Z</time>
      </trkpt>
      <trkpt lat="43.65378" lon="6.25978">
        <ele>907.16</ele>
        <time>2014-08-27T06:36:52Z</time>
      </trkpt>
      <trkpt lat="43.65364" lon="6.25962">
        <ele>908.03</ele>
        <time>2014-08-27T06:37:09Z</time>
      </trkpt>
      <trkpt lat="43.65351" lon="6.25944">
        <ele>909.61</ele>
        <time>2014-08-27T06:37:26Z</time>
      </trkpt>
      <trkpt lat="43.65335" lon="6.25931">
        <ele>910.95</ele>
        <time>2014-08-27T06:37:44Z</time>
      </trkpt>
      <trkpt lat="43.65319" lon="6.25917">
        <ele>911.75</ele>
        <time>2014-08-27T06:38:03Z</time>
      </trkpt>
      <trkpt lat="43.65303" lon="6.25905">
        <ele>912.54</ele>
        <time>2014-08-27T06:38:20Z</time>
      </trkpt>
      <trkpt lat="43.65287" lon="6.2589">
        <ele>912.52</ele>
        <time>2014-08-27T06:38:37Z</time>
      </trkpt>
      <trkpt lat="43.65274" lon="6.25872">
        <ele>913.18</ele>
        <time>2014-08-27T06:38:53Z</time>
      </trkpt>
      <trkpt lat="43.6526" lon="6.25856">
        <ele>914.18</ele>
        <time>2014-08-27T06:39:10Z</time>
      </trkpt>
      <trkpt lat="43.65246" lon="6.2584">
        <ele>915.56</ele>
        <time>2014-08-27T06:39:34Z</time>
      </trkpt>
      <trkpt lat="43.65248" lon="6.25815">
        <ele>918.63</ele>
        <time>2014-08-27T06:39:54Z</time>
      </trkpt>
      <trkpt lat="43.65255" lon="6.25791">
        <ele>922.69</ele>
        <time>2014-08-27T06:40:29Z</time>
      </trkpt>
      <trkpt lat="43.6527" lon="6.25777">
        <ele>926.01</ele>
        <time>2014-08-27T06:40:56Z</time>
      </trkpt>
      <trkpt lat="43.65285" lon="6.25762">
        <ele>928.64</ele>
        <time>2014-08-27T06:41:22Z</time>
      </trkpt>
      <trkpt lat="43.65296" lon="6.25741">
        <ele>930.51</ele>
        <time>2014-08-27T06:41:57Z</time>
      </trkpt>
      <trkpt lat="43.65305" lon="6.25719">
        <ele>933.46</ele>
        <time>2014-08-27T06:42:28Z</time>
      </trkpt>
      <trkpt lat="43.65306" lon="6.25694">
        <ele>936.01</ele>
        <time>2014-08-27T06:42:57Z</time>
      </trkpt>
      <trkpt lat="43.65302" lon="6.25669">
        <ele>938.63</ele>
        <time>2014-08-27T06:43:19Z</time>
      </trkpt>
      <trkpt lat="43.65293" lon="6.25647">
        <ele>940.58</ele>
        <time>2014-08-27T06:43:40Z</time>
      </trkpt>
      <trkpt lat="43.65294" lon="6.25621">
        <ele>943.05</ele>
        <time>2014-08-27T06:44:02Z</time>
      </trkpt>
      <trkpt lat="43.65303" lon="6.25598">
        <ele>944.82</ele>
        <time>2014-08-27T06:44:28Z</time>
      </trkpt>
      <trkpt lat="43.65311" lon="6.25574">
        <ele>947.32</ele>
        <time>2014-08-27T06:44:50Z</time>
      </trkpt>
      <trkpt lat="43.65315" lon="6.2555">
        <ele>949.09</ele>
        <time>2014-08-27T06:45:07Z</time>
      </trkpt>
      <trkpt lat="43.65328" lon="6.25532">
        <ele>949.76</ele>
        <time>2014-08-27T06:45:41Z</time>
      </trkpt>
      <trkpt lat="43.65326" lon="6.25507">
        <ele>950.65</ele>
        <time>2014-08-27T06:46:05Z</time>
      </trkpt>
      <trkpt lat="43.65324" lon="6.25481">
        <ele>954.33</ele>
        <time>2014-08-27T06:46:24Z</time>
      </trkpt>
      <trkpt lat="43.65325" lon="6.25455">
        <ele>956.26</ele>
        <time>2014-08-27T06:46:51Z</time>
      </trkpt>
      <trkpt lat="43.65325" lon="6.25429">
        <ele>952.53</ele>
        <time>2014-08-27T06:47:14Z</time>
      </trkpt>
      <trkpt lat="43.65323" lon="6.25404">
        <ele>952</ele>
        <time>2014-08-27T06:47:39Z</time>
      </trkpt>
      <trkpt lat="43.65329" lon="6.25379">
        <ele>950.53</ele>
        <time>2014-08-27T06:47:57Z</time>
      </trkpt>
      <trkpt lat="43.65329" lon="6.25354">
        <ele>949</ele>
        <time>2014-08-27T06:48:16Z</time>
      </trkpt>
      <trkpt lat="43.65341" lon="6.25267">
        <ele>947.85</ele>
        <time>2014-08-27T06:50:17Z</time>
      </trkpt>
      <trkpt lat="43.65368" lon="6.25266">
        <ele>945.29</ele>
        <time>2014-08-27T06:50:49Z</time>
      </trkpt>
      <trkpt lat="43.65374" lon="6.25239">
        <ele>947.55</ele>
        <time>2014-08-27T06:51:13Z</time>
      </trkpt>
      <trkpt lat="43.65368" lon="6.25212">
        <ele>949.44</ele>
        <time>2014-08-27T06:51:24Z</time>
      </trkpt>
      <trkpt lat="43.65376" lon="6.25188">
        <ele>957.74</ele>
        <time>2014-08-27T06:51:45Z</time>
      </trkpt>
      <trkpt lat="43.65372" lon="6.25164">
        <ele>963.69</ele>
        <time>2014-08-27T06:52:01Z</time>
      </trkpt>
      <trkpt lat="43.65368" lon="6.25139">
        <ele>964.84</ele>
        <time>2014-08-27T06:52:19Z</time>
      </trkpt>
      <trkpt lat="43.6536" lon="6.25116">
        <ele>966.17</ele>
        <time>2014-08-27T06:52:35Z</time>
      </trkpt>
      <trkpt lat="43.65361" lon="6.25091">
        <ele>971.1</ele>
        <time>2014-08-27T06:53:04Z</time>
      </trkpt>
      <trkpt lat="43.65362" lon="6.25065">
        <ele>978.3</ele>
        <time>2014-08-27T06:53:23Z</time>
      </trkpt>
      <trkpt lat="43.65374" lon="6.25045">
        <ele>985.27</ele>
        <time>2014-08-27T06:55:58Z</time>
      </trkpt>
      <trkpt lat="43.65373" lon="6.2502">
        <ele>983.3</ele>
        <time>2014-08-27T06:56:28Z</time>
      </trkpt>
      <trkpt lat="43.65363" lon="6.24999">
        <ele>983.4</ele>
        <time>2014-08-27T06:56:45Z</time>
      </trkpt>
      <trkpt lat="43.65362" lon="6.24974">
        <ele>989.73</ele>
        <time>2014-08-27T06:58:11Z</time>
      </trkpt>
      <trkpt lat="43.65348" lon="6.24957">
        <ele>989.68</ele>
        <time>2014-08-27T07:00:12Z</time>
      </trkpt>
      <trkpt lat="43.65366" lon="6.24951">
        <ele>993.93</ele>
        <time>2014-08-27T07:02:35Z</time>
      </trkpt>
      <trkpt lat="43.65351" lon="6.24967">
        <ele>994.14</ele>
        <time>2014-08-27T07:03:33Z</time>
      </trkpt>
      <trkpt lat="43.65358" lon="6.2499">
        <ele>994.56</ele>
        <time>2014-08-27T07:05:49Z</time>
      </trkpt>
      <trkpt lat="43.65359" lon="6.25015">
        <ele>994.26</ele>
        <time>2014-08-27T07:06:21Z</time>
      </trkpt>
      <trkpt lat="43.65368" lon="6.25037">
        <ele>992.1</ele>
        <time>2014-08-27T07:06:40Z</time>
      </trkpt>
      <trkpt lat="43.65363" lon="6.25062">
        <ele>990.92</ele>
        <time>2014-08-27T07:07:01Z</time>
      </trkpt>
      <trkpt lat="43.65363" lon="6.25087">
        <ele>989.25</ele>
        <time>2014-08-27T07:07:23Z</time>
      </trkpt>
      <trkpt lat="43.65366" lon="6.25112">
        <ele>987.75</ele>
        <time>2014-08-27T07:07:40Z</time>
      </trkpt>
      <trkpt lat="43.65374" lon="6.25135">
        <ele>985.6</ele>
        <time>2014-08-27T07:07:53Z</time>
      </trkpt>
      <trkpt lat="43.65379" lon="6.2516">
        <ele>984.79</ele>
        <time>2014-08-27T07:08:19Z</time>
      </trkpt>
      <trkpt lat="43.65378" lon="6.25185">
        <ele>984.17</ele>
        <time>2014-08-27T07:08:37Z</time>
      </trkpt>
      <trkpt lat="43.65363" lon="6.25201">
        <ele>981.61</ele>
        <time>2014-08-27T07:08:57Z</time>
      </trkpt>
      <trkpt lat="43.65352" lon="6.25221">
        <ele>979.75</ele>
        <time>2014-08-27T07:09:13Z</time>
      </trkpt>
      <trkpt lat="43.65353" lon="6.25247">
        <ele>979.62</ele>
        <time>2014-08-27T07:09:33Z</time>
      </trkpt>
      <trkpt lat="43.65342" lon="6.25267">
        <ele>977.79</ele>
        <time>2014-08-27T07:10:52Z</time>
      </trkpt>
      <trkpt lat="43.65335" lon="6.2529">
        <ele>975.86</ele>
        <time>2014-08-27T07:11:11Z</time>
      </trkpt>
      <trkpt lat="43.6533" lon="6.25315">
        <ele>973.34</ele>
        <time>2014-08-27T07:11:29Z</time>
      </trkpt>
      <trkpt lat="43.65322" lon="6.25338">
        <ele>969.34</ele>
        <time>2014-08-27T07:11:50Z</time>
      </trkpt>
      <trkpt lat="43.65318" lon="6.25364">
        <ele>967.05</ele>
        <time>2014-08-27T07:12:10Z</time>
      </trkpt>
      <trkpt lat="43.65314" lon="6.25389">
        <ele>966.87</ele>
        <time>2014-08-27T07:12:29Z</time>
      </trkpt>
      <trkpt lat="43.65312" lon="6.25415">
        <ele>967.03</ele>
        <time>2014-08-27T07:12:46Z</time>
      </trkpt>
      <trkpt lat="43.6531" lon="6.2544">
        <ele>967.25</ele>
        <time>2014-08-27T07:13:07Z</time>
      </trkpt>
      <trkpt lat="43.65292" lon="6.25437">
        <ele>961.01</ele>
        <time>2014-08-27T07:13:56Z</time>
      </trkpt>
      <trkpt lat="43.65278" lon="6.25453">
        <ele>959.48</ele>
        <time>2014-08-27T07:14:17Z</time>
      </trkpt>
      <trkpt lat="43.65265" lon="6.25471">
        <ele>958.89</ele>
        <time>2014-08-27T07:14:41Z</time>
      </trkpt>
      <trkpt lat="43.65249" lon="6.25483">
        <ele>956.66</ele>
        <time>2014-08-27T07:15:04Z</time>
      </trkpt>
      <trkpt lat="43.65235" lon="6.25499">
        <ele>956.42</ele>
        <time>2014-08-27T07:15:22Z</time>
      </trkpt>
      <trkpt lat="43.65223" lon="6.25518">
        <ele>956.32</ele>
        <time>2014-08-27T07:15:40Z</time>
      </trkpt>
      <trkpt lat="43.65208" lon="6.25535">
        <ele>955.41</ele>
        <time>2014-08-27T07:15:59Z</time>
      </trkpt>
      <trkpt lat="43.65196" lon="6.25554">
        <ele>956.5</ele>
        <time>2014-08-27T07:16:22Z</time>
      </trkpt>
      <trkpt lat="43.65181" lon="6.25567">
        <ele>957.24</ele>
        <time>2014-08-27T07:16:43Z</time>
      </trkpt>
      <trkpt lat="43.65164" lon="6.25578">
        <ele>962</ele>
        <time>2014-08-27T07:19:55Z</time>
      </trkpt>
      <trkpt lat="43.65147" lon="6.25586">
        <ele>960.78</ele>
        <time>2014-08-27T07:20:18Z</time>
      </trkpt>
      <trkpt lat="43.6513" lon="6.25597">
        <ele>962.11</ele>
        <time>2014-08-27T07:20:45Z</time>
      </trkpt>
      <trkpt lat="43.65128" lon="6.25624">
        <ele>962.94</ele>
        <time>2014-08-27T07:21:15Z</time>
      </trkpt>
      <trkpt lat="43.65118" lon="6.25645">
        <ele>962.44</ele>
        <time>2014-08-27T07:21:41Z</time>
      </trkpt>
      <trkpt lat="43.65103" lon="6.25659">
        <ele>964.45</ele>
        <time>2014-08-27T07:22:01Z</time>
      </trkpt>
      <trkpt lat="43.65094" lon="6.2568">
        <ele>966.13</ele>
        <time>2014-08-27T07:22:31Z</time>
      </trkpt>
      <trkpt lat="43.65107" lon="6.25698">
        <ele>968.72</ele>
        <time>2014-08-27T07:22:59Z</time>
      </trkpt>
      <trkpt lat="43.65114" lon="6.25721">
        <ele>970.7</ele>
        <time>2014-08-27T07:23:25Z</time>
      </trkpt>
      <trkpt lat="43.65114" lon="6.25746">
        <ele>971.59</ele>
        <time>2014-08-27T07:23:51Z</time>
      </trkpt>
      <trkpt lat="43.65121" lon="6.25769">
        <ele>971.24</ele>
        <time>2014-08-27T07:27:18Z</time>
      </trkpt>
      <trkpt lat="43.65122" lon="6.25795">
        <ele>969.16</ele>
        <time>2014-08-27T07:27:41Z</time>
      </trkpt>
      <trkpt lat="43.65126" lon="6.25819">
        <ele>968.41</ele>
        <time>2014-08-27T07:28:23Z</time>
      </trkpt>
      <trkpt lat="43.6513" lon="6.25843">
        <ele>967.92</ele>
        <time>2014-08-27T07:29:00Z</time>
      </trkpt>
      <trkpt lat="43.65131" lon="6.25869">
        <ele>969.71</ele>
        <time>2014-08-27T07:29:28Z</time>
      </trkpt>
      <trkpt lat="43.65124" lon="6.25891">
        <ele>969.71</ele>
        <time>2014-08-27T07:29:51Z</time>
      </trkpt>
      <trkpt lat="43.65122" lon="6.25918">
        <ele>970.16</ele>
        <time>2014-08-27T07:30:16Z</time>
      </trkpt>
      <trkpt lat="43.65122" lon="6.25943">
        <ele>972.15</ele>
        <time>2014-08-27T07:30:37Z</time>
      </trkpt>
      <trkpt lat="43.65111" lon="6.25964">
        <ele>973.81</ele>
        <time>2014-08-27T07:31:04Z</time>
      </trkpt>
      <trkpt lat="43.65102" lon="6.25986">
        <ele>975.58</ele>
        <time>2014-08-27T07:31:22Z</time>
      </trkpt>
      <trkpt lat="43.65097" lon="6.2601">
        <ele>976.36</ele>
        <time>2014-08-27T07:31:40Z</time>
      </trkpt>
      <trkpt lat="43.65097" lon="6.26036">
        <ele>974.59</ele>
        <time>2014-08-27T07:32:00Z</time>
      </trkpt>
      <trkpt lat="43.65095" lon="6.26061">
        <ele>973.06</ele>
        <time>2014-08-27T07:32:17Z</time>
      </trkpt>
      <trkpt lat="43.65087" lon="6.26083">
        <ele>972.55</ele>
        <time>2014-08-27T07:32:42Z</time>
      </trkpt>
      <trkpt lat="43.65078" lon="6.26106">
        <ele>973</ele>
        <time>2014-08-27T07:33:04Z</time>
      </trkpt>
      <trkpt lat="43.65067" lon="6.26127">
        <ele>971.43</ele>
        <time>2014-08-27T07:33:24Z</time>
      </trkpt>
      <trkpt lat="43.65055" lon="6.26146">
        <ele>971.67</ele>
        <time>2014-08-27T07:33:49Z</time>
      </trkpt>
      <trkpt lat="43.65053" lon="6.26171">
        <ele>976.06</ele>
        <time>2014-08-27T07:34:34Z</time>
      </trkpt>
      <trkpt lat="43.65054" lon="6.26196">
        <ele>981.02</ele>
        <time>2014-08-27T07:35:05Z</time>
      </trkpt>
      <trkpt lat="43.65052" lon="6.26222">
        <ele>984.78</ele>
        <time>2014-08-27T07:35:40Z</time>
      </trkpt>
      <trkpt lat="43.65047" lon="6.26247">
        <ele>988.31</ele>
        <time>2014-08-27T07:36:09Z</time>
      </trkpt>
      <trkpt lat="43.65039" lon="6.2627">
        <ele>989.79</ele>
        <time>2014-08-27T07:36:29Z</time>
      </trkpt>
      <trkpt lat="43.65035" lon="6.26295">
        <ele>990.26</ele>
        <time>2014-08-27T07:36:49Z</time>
      </trkpt>
      <trkpt lat="43.65037" lon="6.26321">
        <ele>991.66</ele>
        <time>2014-08-27T07:37:07Z</time>
      </trkpt>
      <trkpt lat="43.65035" lon="6.26347">
        <ele>993.05</ele>
        <time>2014-08-27T07:37:29Z</time>
      </trkpt>
      <trkpt lat="43.65028" lon="6.2637">
        <ele>993.83</ele>
        <time>2014-08-27T07:38:16Z</time>
      </trkpt>
      <trkpt lat="43.65019" lon="6.26393">
        <ele>993.94</ele>
        <time>2014-08-27T07:38:43Z</time>
      </trkpt>
      <trkpt lat="43.65015" lon="6.26417">
        <ele>993.83</ele>
        <time>2014-08-27T07:39:13Z</time>
      </trkpt>
      <trkpt lat="43.65012" lon="6.26442">
        <ele>992.83</ele>
        <time>2014-08-27T07:39:34Z</time>
      </trkpt>
      <trkpt lat="43.65011" lon="6.26468">
        <ele>990.49</ele>
        <time>2014-08-27T07:39:56Z</time>
      </trkpt>
      <trkpt lat="43.65007" lon="6.26492">
        <ele>989.62</ele>
        <time>2014-08-27T07:40:20Z</time>
      </trkpt>
      <trkpt lat="43.65002" lon="6.26517">
        <ele>987.66</ele>
        <time>2014-08-27T07:40:47Z</time>
      </trkpt>
      <trkpt lat="43.64994" lon="6.26539">
        <ele>986.21</ele>
        <time>2014-08-27T07:41:15Z</time>
      </trkpt>
      <trkpt lat="43.64985" lon="6.26562">
        <ele>989.1</ele>
        <time>2014-08-27T07:41:48Z</time>
      </trkpt>
      <trkpt lat="43.64978" lon="6.26584">
        <ele>990.59</ele>
        <time>2014-08-27T07:42:09Z</time>
      </trkpt>
      <trkpt lat="43.64964" lon="6.26602">
        <ele>992.78</ele>
        <time>2014-08-27T07:42:32Z</time>
      </trkpt>
      <trkpt lat="43.64956" lon="6.26626">
        <ele>994.56</ele>
        <time>2014-08-27T07:42:50Z</time>
      </trkpt>
      <trkpt lat="43.64948" lon="6.26649">
        <ele>996.69</ele>
        <time>2014-08-27T07:43:18Z</time>
      </trkpt>
      <trkpt lat="43.64935" lon="6.26667">
        <ele>998.1</ele>
        <time>2014-08-27T07:43:42Z</time>
      </trkpt>
      <trkpt lat="43.64925" lon="6.26688">
        <ele>1000.28</ele>
        <time>2014-08-27T07:44:06Z</time>
      </trkpt>
      <trkpt lat="43.64923" lon="6.26714">
        <ele>1000.82</ele>
        <time>2014-08-27T07:44:23Z</time>
      </trkpt>
      <trkpt lat="43.64919" lon="6.26739">
        <ele>1001.69</ele>
        <time>2014-08-27T07:44:46Z</time>
      </trkpt>
      <trkpt lat="43.64911" lon="6.26761">
        <ele>1004.14</ele>
        <time>2014-08-27T07:45:05Z</time>
      </trkpt>
      <trkpt lat="43.64907" lon="6.26786">
        <ele>1005.58</ele>
        <time>2014-08-27T07:45:26Z</time>
      </trkpt>
      <trkpt lat="43.64896" lon="6.26805">
        <ele>1009.35</ele>
        <time>2014-08-27T07:45:54Z</time>
      </trkpt>
      <trkpt lat="43.6489" lon="6.26829">
        <ele>1013.75</ele>
        <time>2014-08-27T07:46:17Z</time>
      </trkpt>
      <trkpt lat="43.64881" lon="6.26852">
        <ele>1017.25</ele>
        <time>2014-08-27T07:46:48Z</time>
      </trkpt>
      <trkpt lat="43.64879" lon="6.26877">
        <ele>1018.5</ele>
        <time>2014-08-27T07:47:14Z</time>
      </trkpt>
      <trkpt lat="43.64863" lon="6.2689">
        <ele>1022.68</ele>
        <time>2014-08-27T07:48:15Z</time>
      </trkpt>
      <trkpt lat="43.6486" lon="6.26915">
        <ele>1025.09</ele>
        <time>2014-08-27T07:49:23Z</time>
      </trkpt>
      <trkpt lat="43.64851" lon="6.26937">
        <ele>1023.44</ele>
        <time>2014-08-27T07:49:47Z</time>
      </trkpt>
      <trkpt lat="43.64843" lon="6.26959">
        <ele>1023.48</ele>
        <time>2014-08-27T07:50:06Z</time>
      </trkpt>
      <trkpt lat="43.64836" lon="6.26984">
        <ele>1022.1</ele>
        <time>2014-08-27T07:50:21Z</time>
      </trkpt>
      <trkpt lat="43.64822" lon="6.26999">
        <ele>1020.27</ele>
        <time>2014-08-27T07:50:46Z</time>
      </trkpt>
      <trkpt lat="43.64808" lon="6.27015">
        <ele>1020.92</ele>
        <time>2014-08-27T07:51:18Z</time>
      </trkpt>
      <trkpt lat="43.648" lon="6.27038">
        <ele>1019.42</ele>
        <time>2014-08-27T07:51:39Z</time>
      </trkpt>
      <trkpt lat="43.64783" lon="6.27049">
        <ele>1017.96</ele>
        <time>2014-08-27T07:52:09Z</time>
      </trkpt>
      <trkpt lat="43.64767" lon="6.27062">
        <ele>1018.87</ele>
        <time>2014-08-27T07:52:26Z</time>
      </trkpt>
      <trkpt lat="43.64748" lon="6.27067">
        <ele>1021.21</ele>
        <time>2014-08-27T07:52:54Z</time>
      </trkpt>
      <trkpt lat="43.64731" lon="6.27077">
        <ele>1021.77</ele>
        <time>2014-08-27T07:53:18Z</time>
      </trkpt>
      <trkpt lat="43.64715" lon="6.27089">
        <ele>1021.33</ele>
        <time>2014-08-27T07:53:43Z</time>
      </trkpt>
      <trkpt lat="43.64703" lon="6.27109">
        <ele>1019.81</ele>
        <time>2014-08-27T07:54:36Z</time>
      </trkpt>
      <trkpt lat="43.64691" lon="6.27128">
        <ele>1018.25</ele>
        <time>2014-08-27T07:54:59Z</time>
      </trkpt>
      <trkpt lat="43.64677" lon="6.27144">
        <ele>1016.1</ele>
        <time>2014-08-27T07:55:26Z</time>
      </trkpt>
      <trkpt lat="43.64663" lon="6.27162">
        <ele>1016.38</ele>
        <time>2014-08-27T07:55:46Z</time>
      </trkpt>
      <trkpt lat="43.6465" lon="6.27179">
        <ele>1016.66</ele>
        <time>2014-08-27T07:56:07Z</time>
      </trkpt>
      <trkpt lat="43.64632" lon="6.27188">
        <ele>1018.51</ele>
        <time>2014-08-27T07:56:43Z</time>
      </trkpt>
      <trkpt lat="43.6462" lon="6.27209">
        <ele>1023.07</ele>
        <time>2014-08-27T07:57:41Z</time>
      </trkpt>
      <trkpt lat="43.64602" lon="6.27205">
        <ele>1029.45</ele>
        <time>2014-08-27T07:58:30Z</time>
      </trkpt>
      <trkpt lat="43.64587" lon="6.27219">
        <ele>1030.35</ele>
        <time>2014-08-27T07:58:48Z</time>
      </trkpt>
      <trkpt lat="43.64568" lon="6.2722">
        <ele>1031.02</ele>
        <time>2014-08-27T07:59:27Z</time>
      </trkpt>
      <trkpt lat="43.6455" lon="6.27216">
        <ele>1037.5</ele>
        <time>2014-08-27T08:00:13Z</time>
      </trkpt>
      <trkpt lat="43.64532" lon="6.27221">
        <ele>1040.13</ele>
        <time>2014-08-27T08:00:48Z</time>
      </trkpt>
      <trkpt lat="43.64515" lon="6.27232">
        <ele>1039.88</ele>
        <time>2014-08-27T08:01:42Z</time>
      </trkpt>
      <trkpt lat="43.64497" lon="6.27229">
        <ele>1051.72</ele>
        <time>2014-08-27T08:02:31Z</time>
      </trkpt>
      <trkpt lat="43.64481" lon="6.27239">
        <ele>1057.46</ele>
        <time>2014-08-27T08:03:05Z</time>
      </trkpt>
      <trkpt lat="43.64466" lon="6.27254">
        <ele>1066.54</ele>
        <time>2014-08-27T08:03:57Z</time>
      </trkpt>
      <trkpt lat="43.64451" lon="6.27267">
        <ele>1072.64</ele>
        <time>2014-08-27T08:05:19Z</time>
      </trkpt>
      <trkpt lat="43.64455" lon="6.27292">
        <ele>1079.11</ele>
        <time>2014-08-27T08:14:10Z</time>
      </trkpt>
      <trkpt lat="43.6445" lon="6.27317">
        <ele>1077.7</ele>
        <time>2014-08-27T08:14:33Z</time>
      </trkpt>
      <trkpt lat="43.64433" lon="6.27329">
        <ele>1075.2</ele>
        <time>2014-08-27T08:15:10Z</time>
      </trkpt>
      <trkpt lat="43.64419" lon="6.27344">
        <ele>1072.03</ele>
        <time>2014-08-27T08:15:31Z</time>
      </trkpt>
      <trkpt lat="43.64406" lon="6.27363">
        <ele>1069.43</ele>
        <time>2014-08-27T08:16:19Z</time>
      </trkpt>
      <trkpt lat="43.64389" lon="6.2737">
        <ele>1066.24</ele>
        <time>2014-08-27T08:16:46Z</time>
      </trkpt>
      <trkpt lat="43.64375" lon="6.27386">
        <ele>1064.63</ele>
        <time>2014-08-27T08:17:05Z</time>
      </trkpt>
      <trkpt lat="43.64364" lon="6.27406">
        <ele>1061.8</ele>
        <time>2014-08-27T08:17:32Z</time>
      </trkpt>
      <trkpt lat="43.64352" lon="6.27426">
        <ele>1059.11</ele>
        <time>2014-08-27T08:17:52Z</time>
      </trkpt>
      <trkpt lat="43.64338" lon="6.27441">
        <ele>1057.07</ele>
        <time>2014-08-27T08:18:15Z</time>
      </trkpt>
      <trkpt lat="43.64325" lon="6.27458">
        <ele>1054.64</ele>
        <time>2014-08-27T08:18:34Z</time>
      </trkpt>
      <trkpt lat="43.6431" lon="6.27473">
        <ele>1052.44</ele>
        <time>2014-08-27T08:19:03Z</time>
      </trkpt>
      <trkpt lat="43.64295" lon="6.27487">
        <ele>1053.27</ele>
        <time>2014-08-27T08:19:22Z</time>
      </trkpt>
      <trkpt lat="43.64283" lon="6.27507">
        <ele>1051.84</ele>
        <time>2014-08-27T08:19:35Z</time>
      </trkpt>
      <trkpt lat="43.6428" lon="6.27533">
        <ele>1051.14</ele>
        <time>2014-08-27T08:19:50Z</time>
      </trkpt>
      <trkpt lat="43.6427" lon="6.27554">
        <ele>1049.45</ele>
        <time>2014-08-27T08:20:11Z</time>
      </trkpt>
      <trkpt lat="43.64265" lon="6.27579">
        <ele>1044.15</ele>
        <time>2014-08-27T08:20:38Z</time>
      </trkpt>
      <trkpt lat="43.64255" lon="6.276">
        <ele>1040.98</ele>
        <time>2014-08-27T08:21:01Z</time>
      </trkpt>
      <trkpt lat="43.64241" lon="6.27616">
        <ele>1038.73</ele>
        <time>2014-08-27T08:21:24Z</time>
      </trkpt>
      <trkpt lat="43.64231" lon="6.27638">
        <ele>1035.66</ele>
        <time>2014-08-27T08:21:46Z</time>
      </trkpt>
      <trkpt lat="43.6422" lon="6.27658">
        <ele>1034.59</ele>
        <time>2014-08-27T08:22:06Z</time>
      </trkpt>
      <trkpt lat="43.64204" lon="6.2767">
        <ele>1034.27</ele>
        <time>2014-08-27T08:22:24Z</time>
      </trkpt>
      <trkpt lat="43.64192" lon="6.27688">
        <ele>1033.45</ele>
        <time>2014-08-27T08:22:42Z</time>
      </trkpt>
      <trkpt lat="43.64181" lon="6.2771">
        <ele>1032.76</ele>
        <time>2014-08-27T08:22:59Z</time>
      </trkpt>
      <trkpt lat="43.64169" lon="6.27729">
        <ele>1032.18</ele>
        <time>2014-08-27T08:23:19Z</time>
      </trkpt>
      <trkpt lat="43.64157" lon="6.27749">
        <ele>1031.72</ele>
        <time>2014-08-27T08:23:42Z</time>
      </trkpt>
      <trkpt lat="43.64146" lon="6.2777">
        <ele>1035.15</ele>
        <time>2014-08-27T08:24:09Z</time>
      </trkpt>
      <trkpt lat="43.64135" lon="6.27791">
        <ele>1037.43</ele>
        <time>2014-08-27T08:24:29Z</time>
      </trkpt>
      <trkpt lat="43.64123" lon="6.2781">
        <ele>1039.15</ele>
        <time>2014-08-27T08:24:55Z</time>
      </trkpt>
      <trkpt lat="43.64105" lon="6.27821">
        <ele>1040.88</ele>
        <time>2014-08-27T08:25:16Z</time>
      </trkpt>
      <trkpt lat="43.64089" lon="6.27832">
        <ele>1040.89</ele>
        <time>2014-08-27T08:25:33Z</time>
      </trkpt>
      <trkpt lat="43.64077" lon="6.27852">
        <ele>1040.89</ele>
        <time>2014-08-27T08:25:51Z</time>
      </trkpt>
      <trkpt lat="43.64062" lon="6.27867">
        <ele>1041.85</ele>
        <time>2014-08-27T08:26:09Z</time>
      </trkpt>
      <trkpt lat="43.64049" lon="6.27884">
        <ele>1043.04</ele>
        <time>2014-08-27T08:26:31Z</time>
      </trkpt>
      <trkpt lat="43.64041" lon="6.27908">
        <ele>1045.89</ele>
        <time>2014-08-27T08:26:53Z</time>
      </trkpt>
      <trkpt lat="43.64037" lon="6.27932">
        <ele>1047.66</ele>
        <time>2014-08-27T08:27:21Z</time>
      </trkpt>
      <trkpt lat="43.64026" lon="6.27953">
        <ele>1053.39</ele>
        <time>2014-08-27T08:28:00Z</time>
      </trkpt>
      <trkpt lat="43.64011" lon="6.27969">
        <ele>1055.53</ele>
        <time>2014-08-27T08:28:29Z</time>
      </trkpt>
      <trkpt lat="43.63995" lon="6.27981">
        <ele>1057.8</ele>
        <time>2014-08-27T08:28:56Z</time>
      </trkpt>
      <trkpt lat="43.63995" lon="6.28015">
        <ele>1057.7</ele>
        <time>2014-08-27T08:30:40Z</time>
      </trkpt>
      <trkpt lat="43.63993" lon="6.27989">
        <ele>1060.8</ele>
        <time>2014-08-27T08:33:02Z</time>
      </trkpt>
      <trkpt lat="43.6401" lon="6.2798">
        <ele>1062.6</ele>
        <time>2014-08-27T08:39:25Z</time>
      </trkpt>
      <trkpt lat="43.64022" lon="6.27961">
        <ele>1060.93</ele>
        <time>2014-08-27T08:39:52Z</time>
      </trkpt>
      <trkpt lat="43.64038" lon="6.27947">
        <ele>1060.39</ele>
        <time>2014-08-27T08:40:15Z</time>
      </trkpt>
      <trkpt lat="43.64044" lon="6.27923">
        <ele>1056.29</ele>
        <time>2014-08-27T08:40:39Z</time>
      </trkpt>
      <trkpt lat="43.64049" lon="6.27899">
        <ele>1049.78</ele>
        <time>2014-08-27T08:41:08Z</time>
      </trkpt>
      <trkpt lat="43.64062" lon="6.2788">
        <ele>1049.52</ele>
        <time>2014-08-27T08:41:25Z</time>
      </trkpt>
      <trkpt lat="43.64077" lon="6.27865">
        <ele>1046.11</ele>
        <time>2014-08-27T08:41:48Z</time>
      </trkpt>
      <trkpt lat="43.64087" lon="6.27843">
        <ele>1044.1</ele>
        <time>2014-08-27T08:42:07Z</time>
      </trkpt>
      <trkpt lat="43.641" lon="6.27826">
        <ele>1043.79</ele>
        <time>2014-08-27T08:42:27Z</time>
      </trkpt>
      <trkpt lat="43.64116" lon="6.2781">
        <ele>1042.36</ele>
        <time>2014-08-27T08:42:44Z</time>
      </trkpt>
      <trkpt lat="43.64132" lon="6.27799">
        <ele>1042.36</ele>
        <time>2014-08-27T08:43:00Z</time>
      </trkpt>
      <trkpt lat="43.64147" lon="6.27782">
        <ele>1041.92</ele>
        <time>2014-08-27T08:43:15Z</time>
      </trkpt>
      <trkpt lat="43.64157" lon="6.27762">
        <ele>1041.46</ele>
        <time>2014-08-27T08:43:35Z</time>
      </trkpt>
      <trkpt lat="43.64169" lon="6.27743">
        <ele>1038.37</ele>
        <time>2014-08-27T08:43:59Z</time>
      </trkpt>
      <trkpt lat="43.64181" lon="6.27724">
        <ele>1035.24</ele>
        <time>2014-08-27T08:46:12Z</time>
      </trkpt>
      <trkpt lat="43.64191" lon="6.27702">
        <ele>1035.2</ele>
        <time>2014-08-27T08:46:31Z</time>
      </trkpt>
      <trkpt lat="43.64205" lon="6.27686">
        <ele>1035.36</ele>
        <time>2014-08-27T08:46:52Z</time>
      </trkpt>
      <trkpt lat="43.64218" lon="6.27667">
        <ele>1033.69</ele>
        <time>2014-08-27T08:47:22Z</time>
      </trkpt>
      <trkpt lat="43.6423" lon="6.27648">
        <ele>1033.87</ele>
        <time>2014-08-27T08:47:42Z</time>
      </trkpt>
      <trkpt lat="43.64242" lon="6.27629">
        <ele>1034.82</ele>
        <time>2014-08-27T08:48:12Z</time>
      </trkpt>
      <trkpt lat="43.6423" lon="6.27649">
        <ele>1032.55</ele>
        <time>2014-08-27T08:50:16Z</time>
      </trkpt>
      <trkpt lat="43.64214" lon="6.27662">
        <ele>1033.02</ele>
        <time>2014-08-27T08:50:42Z</time>
      </trkpt>
      <trkpt lat="43.64199" lon="6.27681">
        <ele>1033.19</ele>
        <time>2014-08-27T08:51:04Z</time>
      </trkpt>
      <trkpt lat="43.64188" lon="6.27701">
        <ele>1034.52</ele>
        <time>2014-08-27T08:51:24Z</time>
      </trkpt>
      <trkpt lat="43.64176" lon="6.27721">
        <ele>1033.17</ele>
        <time>2014-08-27T08:51:47Z</time>
      </trkpt>
      <trkpt lat="43.64168" lon="6.27744">
        <ele>1032.08</ele>
        <time>2014-08-27T08:52:08Z</time>
      </trkpt>
      <trkpt lat="43.64182" lon="6.2776">
        <ele>1032.39</ele>
        <time>2014-08-27T08:52:56Z</time>
      </trkpt>
      <trkpt lat="43.642" lon="6.27754">
        <ele>1031.5</ele>
        <time>2014-08-27T08:53:19Z</time>
      </trkpt>
      <trkpt lat="43.64217" lon="6.27746">
        <ele>1031.27</ele>
        <time>2014-08-27T08:53:46Z</time>
      </trkpt>
      <trkpt lat="43.64235" lon="6.27742">
        <ele>1026.02</ele>
        <time>2014-08-27T08:54:33Z</time>
      </trkpt>
      <trkpt lat="43.64254" lon="6.27739">
        <ele>1022.71</ele>
        <time>2014-08-27T08:55:00Z</time>
      </trkpt>
      <trkpt lat="43.64272" lon="6.27738">
        <ele>1019.2</ele>
        <time>2014-08-27T08:55:35Z</time>
      </trkpt>
      <trkpt lat="43.64288" lon="6.27724">
        <ele>1016.96</ele>
        <time>2014-08-27T08:55:54Z</time>
      </trkpt>
      <trkpt lat="43.64305" lon="6.27717">
        <ele>1012.02</ele>
        <time>2014-08-27T08:56:32Z</time>
      </trkpt>
      <trkpt lat="43.64321" lon="6.27703">
        <ele>1004.85</ele>
        <time>2014-08-27T08:57:58Z</time>
      </trkpt>
      <trkpt lat="43.64339" lon="6.277">
        <ele>1001.98</ele>
        <time>2014-08-27T08:58:19Z</time>
      </trkpt>
      <trkpt lat="43.64354" lon="6.27688">
        <ele>997.19</ele>
        <time>2014-08-27T08:59:01Z</time>
      </trkpt>
      <trkpt lat="43.6437" lon="6.27676">
        <ele>996.4</ele>
        <time>2014-08-27T08:59:23Z</time>
      </trkpt>
      <trkpt lat="43.64384" lon="6.27659">
        <ele>996.02</ele>
        <time>2014-08-27T08:59:49Z</time>
      </trkpt>
      <trkpt lat="43.64395" lon="6.27639">
        <ele>995.63</ele>
        <time>2014-08-27T09:00:16Z</time>
      </trkpt>
      <trkpt lat="43.64413" lon="6.27633">
        <ele>993.25</ele>
        <time>2014-08-27T09:01:00Z</time>
      </trkpt>
      <trkpt lat="43.64428" lon="6.27617">
        <ele>991.97</ele>
        <time>2014-08-27T09:01:18Z</time>
      </trkpt>
      <trkpt lat="43.64444" lon="6.27629">
        <ele>989.43</ele>
        <time>2014-08-27T09:02:13Z</time>
      </trkpt>
      <trkpt lat="43.64461" lon="6.27637">
        <ele>987.53</ele>
        <time>2014-08-27T09:02:38Z</time>
      </trkpt>
      <trkpt lat="43.64477" lon="6.27652">
        <ele>985.33</ele>
        <time>2014-08-27T09:03:18Z</time>
      </trkpt>
      <trkpt lat="43.6449" lon="6.27669">
        <ele>984.18</ele>
        <time>2014-08-27T09:03:38Z</time>
      </trkpt>
      <trkpt lat="43.64506" lon="6.27682">
        <ele>983.82</ele>
        <time>2014-08-27T09:03:48Z</time>
      </trkpt>
      <trkpt lat="43.64516" lon="6.27703">
        <ele>981.58</ele>
        <time>2014-08-27T09:05:13Z</time>
      </trkpt>
      <trkpt lat="43.64521" lon="6.27727">
        <ele>981.81</ele>
        <time>2014-08-27T09:05:37Z</time>
      </trkpt>
      <trkpt lat="43.64525" lon="6.27752">
        <ele>978.13</ele>
        <time>2014-08-27T09:06:10Z</time>
      </trkpt>
      <trkpt lat="43.6454" lon="6.27766">
        <ele>976.92</ele>
        <time>2014-08-27T09:06:56Z</time>
      </trkpt>
      <trkpt lat="43.64559" lon="6.27763">
        <ele>974.64</ele>
        <time>2014-08-27T09:07:19Z</time>
      </trkpt>
      <trkpt lat="43.64576" lon="6.27753">
        <ele>971.66</ele>
        <time>2014-08-27T09:07:45Z</time>
      </trkpt>
      <trkpt lat="43.64593" lon="6.27744">
        <ele>967.55</ele>
        <time>2014-08-27T09:08:13Z</time>
      </trkpt>
      <trkpt lat="43.64609" lon="6.27733">
        <ele>964.41</ele>
        <time>2014-08-27T09:08:38Z</time>
      </trkpt>
      <trkpt lat="43.64625" lon="6.2772">
        <ele>960.34</ele>
        <time>2014-08-27T09:09:03Z</time>
      </trkpt>
      <trkpt lat="43.64642" lon="6.27711">
        <ele>957.87</ele>
        <time>2014-08-27T09:09:27Z</time>
      </trkpt>
      <trkpt lat="43.64659" lon="6.27701">
        <ele>954.58</ele>
        <time>2014-08-27T09:10:11Z</time>
      </trkpt>
      <trkpt lat="43.64674" lon="6.27687">
        <ele>952.68</ele>
        <time>2014-08-27T09:10:34Z</time>
      </trkpt>
      <trkpt lat="43.64688" lon="6.27671">
        <ele>947.98</ele>
        <time>2014-08-27T09:11:36Z</time>
      </trkpt>
      <trkpt lat="43.64706" lon="6.27666">
        <ele>945.97</ele>
        <time>2014-08-27T09:12:06Z</time>
      </trkpt>
      <trkpt lat="43.64721" lon="6.27651">
        <ele>944.22</ele>
        <time>2014-08-27T09:12:28Z</time>
      </trkpt>
      <trkpt lat="43.64736" lon="6.27639">
        <ele>941.98</ele>
        <time>2014-08-27T09:12:50Z</time>
      </trkpt>
      <trkpt lat="43.6475" lon="6.27622">
        <ele>938.21</ele>
        <time>2014-08-27T09:13:21Z</time>
      </trkpt>
      <trkpt lat="43.64762" lon="6.27604">
        <ele>936.65</ele>
        <time>2014-08-27T09:13:56Z</time>
      </trkpt>
      <trkpt lat="43.64776" lon="6.27586">
        <ele>934.97</ele>
        <time>2014-08-27T09:14:35Z</time>
      </trkpt>
      <trkpt lat="43.64787" lon="6.27565">
        <ele>933.55</ele>
        <time>2014-08-27T09:15:11Z</time>
      </trkpt>
      <trkpt lat="43.64788" lon="6.27539">
        <ele>931.4</ele>
        <time>2014-08-27T09:15:30Z</time>
      </trkpt>
      <trkpt lat="43.64777" lon="6.27518">
        <ele>929.07</ele>
        <time>2014-08-27T09:15:53Z</time>
      </trkpt>
      <trkpt lat="43.64769" lon="6.27496">
        <ele>926.2</ele>
        <time>2014-08-27T09:16:17Z</time>
      </trkpt>
      <trkpt lat="43.6476" lon="6.27473">
        <ele>924.53</ele>
        <time>2014-08-27T09:16:38Z</time>
      </trkpt>
      <trkpt lat="43.64778" lon="6.27468">
        <ele>910.78</ele>
        <time>2014-08-27T09:18:20Z</time>
      </trkpt>
      <trkpt lat="43.64796" lon="6.27474">
        <ele>909.21</ele>
        <time>2014-08-27T09:18:44Z</time>
      </trkpt>
      <trkpt lat="43.64813" lon="6.27484">
        <ele>907.28</ele>
        <time>2014-08-27T09:19:08Z</time>
      </trkpt>
      <trkpt lat="43.6483" lon="6.27492">
        <ele>904.02</ele>
        <time>2014-08-27T09:19:31Z</time>
      </trkpt>
      <trkpt lat="43.64846" lon="6.27505">
        <ele>900.17</ele>
        <time>2014-08-27T09:19:55Z</time>
      </trkpt>
      <trkpt lat="43.64858" lon="6.27524">
        <ele>896.12</ele>
        <time>2014-08-27T09:20:17Z</time>
      </trkpt>
      <trkpt lat="43.64868" lon="6.27545">
        <ele>892.23</ele>
        <time>2014-08-27T09:20:40Z</time>
      </trkpt>
      <trkpt lat="43.64886" lon="6.27542">
        <ele>889.66</ele>
        <time>2014-08-27T09:21:05Z</time>
      </trkpt>
      <trkpt lat="43.64893" lon="6.27565">
        <ele>886.43</ele>
        <time>2014-08-27T09:22:42Z</time>
      </trkpt>
      <trkpt lat="43.64911" lon="6.27573">
        <ele>886.73</ele>
        <time>2014-08-27T09:23:06Z</time>
      </trkpt>
      <trkpt lat="43.64928" lon="6.27579">
        <ele>888.64</ele>
        <time>2014-08-27T09:23:25Z</time>
      </trkpt>
      <trkpt lat="43.64946" lon="6.27587">
        <ele>888.71</ele>
        <time>2014-08-27T09:23:39Z</time>
      </trkpt>
      <trkpt lat="43.64964" lon="6.2759">
        <ele>887.93</ele>
        <time>2014-08-27T09:24:02Z</time>
      </trkpt>
      <trkpt lat="43.64977" lon="6.27571">
        <ele>886.52</ele>
        <time>2014-08-27T09:24:16Z</time>
      </trkpt>
      <trkpt lat="43.64992" lon="6.27557">
        <ele>884.87</ele>
        <time>2014-08-27T09:24:43Z</time>
      </trkpt>
      <trkpt lat="43.65009" lon="6.27549">
        <ele>881.61</ele>
        <time>2014-08-27T09:25:22Z</time>
      </trkpt>
      <trkpt lat="43.65026" lon="6.27539">
        <ele>879.43</ele>
        <time>2014-08-27T09:25:41Z</time>
      </trkpt>
      <trkpt lat="43.65044" lon="6.27531">
        <ele>877.55</ele>
        <time>2014-08-27T09:26:02Z</time>
      </trkpt>
      <trkpt lat="43.65063" lon="6.27527">
        <ele>876.35</ele>
        <time>2014-08-27T09:26:20Z</time>
      </trkpt>
      <trkpt lat="43.65081" lon="6.27521">
        <ele>874.12</ele>
        <time>2014-08-27T09:26:37Z</time>
      </trkpt>
      <trkpt lat="43.65099" lon="6.27512">
        <ele>871.12</ele>
        <time>2014-08-27T09:27:00Z</time>
      </trkpt>
      <trkpt lat="43.65116" lon="6.27503">
        <ele>870.18</ele>
        <time>2014-08-27T09:27:13Z</time>
      </trkpt>
      <trkpt lat="43.65135" lon="6.27498">
        <ele>868.81</ele>
        <time>2014-08-27T09:27:36Z</time>
      </trkpt>
      <trkpt lat="43.65152" lon="6.27486">
        <ele>864.68</ele>
        <time>2014-08-27T09:28:00Z</time>
      </trkpt>
      <trkpt lat="43.65165" lon="6.27468">
        <ele>863.57</ele>
        <time>2014-08-27T09:28:16Z</time>
      </trkpt>
      <trkpt lat="43.65176" lon="6.27448">
        <ele>862.56</ele>
        <time>2014-08-27T09:28:29Z</time>
      </trkpt>
      <trkpt lat="43.65192" lon="6.27435">
        <ele>858.57</ele>
        <time>2014-08-27T09:28:57Z</time>
      </trkpt>
      <trkpt lat="43.65206" lon="6.27418">
        <ele>858.6</ele>
        <time>2014-08-27T09:29:22Z</time>
      </trkpt>
      <trkpt lat="43.65216" lon="6.27398">
        <ele>858.43</ele>
        <time>2014-08-27T09:29:38Z</time>
      </trkpt>
      <trkpt lat="43.65225" lon="6.27376">
        <ele>859.14</ele>
        <time>2014-08-27T09:29:56Z</time>
      </trkpt>
      <trkpt lat="43.65236" lon="6.27355">
        <ele>860.09</ele>
        <time>2014-08-27T09:30:22Z</time>
      </trkpt>
      <trkpt lat="43.6525" lon="6.2734">
        <ele>860.28</ele>
        <time>2014-08-27T09:30:42Z</time>
      </trkpt>
      <trkpt lat="43.65267" lon="6.27327">
        <ele>861.36</ele>
        <time>2014-08-27T09:31:04Z</time>
      </trkpt>
      <trkpt lat="43.65284" lon="6.27337">
        <ele>860.41</ele>
        <time>2014-08-27T09:31:30Z</time>
      </trkpt>
      <trkpt lat="43.653" lon="6.27325">
        <ele>859.18</ele>
        <time>2014-08-27T09:31:57Z</time>
      </trkpt>
      <trkpt lat="43.65319" lon="6.27322">
        <ele>858.17</ele>
        <time>2014-08-27T09:32:16Z</time>
      </trkpt>
      <trkpt lat="43.65333" lon="6.27305">
        <ele>857.37</ele>
        <time>2014-08-27T09:32:34Z</time>
      </trkpt>
      <trkpt lat="43.65344" lon="6.27284">
        <ele>856.2</ele>
        <time>2014-08-27T09:32:59Z</time>
      </trkpt>
      <trkpt lat="43.65362" lon="6.27279">
        <ele>854.32</ele>
        <time>2014-08-27T09:33:31Z</time>
      </trkpt>
      <trkpt lat="43.65379" lon="6.27269">
        <ele>852.64</ele>
        <time>2014-08-27T09:33:48Z</time>
      </trkpt>
      <trkpt lat="43.65394" lon="6.27255">
        <ele>850.95</ele>
        <time>2014-08-27T09:34:12Z</time>
      </trkpt>
      <trkpt lat="43.65401" lon="6.27232">
        <ele>850.22</ele>
        <time>2014-08-27T09:34:31Z</time>
      </trkpt>
      <trkpt lat="43.65402" lon="6.27205">
        <ele>850.09</ele>
        <time>2014-08-27T09:34:57Z</time>
      </trkpt>
      <trkpt lat="43.65409" lon="6.27182">
        <ele>850.36</ele>
        <time>2014-08-27T09:35:17Z</time>
      </trkpt>
      <trkpt lat="43.6542" lon="6.27162">
        <ele>848.26</ele>
        <time>2014-08-27T09:35:39Z</time>
      </trkpt>
      <trkpt lat="43.6543" lon="6.2714">
        <ele>845.66</ele>
        <time>2014-08-27T09:36:02Z</time>
      </trkpt>
      <trkpt lat="43.65439" lon="6.27118">
        <ele>845.72</ele>
        <time>2014-08-27T09:36:19Z</time>
      </trkpt>
      <trkpt lat="43.65447" lon="6.27095">
        <ele>844.72</ele>
        <time>2014-08-27T09:36:38Z</time>
      </trkpt>
      <trkpt lat="43.65455" lon="6.27071">
        <ele>844.2</ele>
        <time>2014-08-27T09:36:55Z</time>
      </trkpt>
      <trkpt lat="43.65464" lon="6.27047">
        <ele>842.55</ele>
        <time>2014-08-27T09:37:11Z</time>
      </trkpt>
      <trkpt lat="43.65475" lon="6.27025">
        <ele>843.1</ele>
        <time>2014-08-27T09:37:33Z</time>
      </trkpt>
      <trkpt lat="43.65488" lon="6.27007">
        <ele>844.99</ele>
        <time>2014-08-27T09:37:49Z</time>
      </trkpt>
      <trkpt lat="43.65496" lon="6.26983">
        <ele>842.79</ele>
        <time>2014-08-27T09:38:15Z</time>
      </trkpt>
      <trkpt lat="43.65504" lon="6.2696">
        <ele>839.07</ele>
        <time>2014-08-27T09:38:34Z</time>
      </trkpt>
      <trkpt lat="43.65516" lon="6.26941">
        <ele>838.11</ele>
        <time>2014-08-27T09:38:57Z</time>
      </trkpt>
      <trkpt lat="43.65524" lon="6.26918">
        <ele>836.33</ele>
        <time>2014-08-27T09:39:16Z</time>
      </trkpt>
      <trkpt lat="43.65528" lon="6.26894">
        <ele>834.93</ele>
        <time>2014-08-27T09:39:35Z</time>
      </trkpt>
      <trkpt lat="43.65539" lon="6.26875">
        <ele>834.46</ele>
        <time>2014-08-27T09:40:11Z</time>
      </trkpt>
      <trkpt lat="43.65552" lon="6.26856">
        <ele>832.6</ele>
        <time>2014-08-27T09:40:29Z</time>
      </trkpt>
      <trkpt lat="43.65564" lon="6.26837">
        <ele>831.51</ele>
        <time>2014-08-27T09:40:53Z</time>
      </trkpt>
      <trkpt lat="43.65572" lon="6.26814">
        <ele>830.34</ele>
        <time>2014-08-27T09:41:11Z</time>
      </trkpt>
      <trkpt lat="43.65582" lon="6.26792">
        <ele>829.83</ele>
        <time>2014-08-27T09:41:25Z</time>
      </trkpt>
      <trkpt lat="43.65593" lon="6.26771">
        <ele>831.7</ele>
        <time>2014-08-27T09:41:44Z</time>
      </trkpt>
      <trkpt lat="43.65605" lon="6.26751">
        <ele>832.99</ele>
        <time>2014-08-27T09:41:58Z</time>
      </trkpt>
      <trkpt lat="43.65613" lon="6.26729">
        <ele>832.68</ele>
        <time>2014-08-27T09:42:17Z</time>
      </trkpt>
      <trkpt lat="43.65624" lon="6.26707">
        <ele>830.2</ele>
        <time>2014-08-27T09:42:55Z</time>
      </trkpt>
      <trkpt lat="43.65637" lon="6.2669">
        <ele>828.51</ele>
        <time>2014-08-27T09:43:09Z</time>
      </trkpt>
      <trkpt lat="43.6565" lon="6.26673">
        <ele>828.49</ele>
        <time>2014-08-27T09:43:32Z</time>
      </trkpt>
      <trkpt lat="43.65665" lon="6.26657">
        <ele>827.69</ele>
        <time>2014-08-27T09:43:53Z</time>
      </trkpt>
    </trkseg>
  </trk>
</gpx>